createdAt,value
2018-11-26T00:01:51.512Z,99879.00
2018-11-26T00:04:22.269Z,99886.00
2018-11-26T00:06:52.841Z,99881.00
2018-11-26T00:09:23.153Z,99881.00
2018-11-26T00:11:53.845Z,99891.00
2018-11-26T00:14:25.979Z,99890.00
2018-11-26T00:16:56.512Z,99877.00
2018-11-26T00:19:33.618Z,99883.00
2018-11-26T00:22:03.825Z,99883.00
2018-11-26T00:24:34.264Z,99879.00
2018-11-26T00:27:05.581Z,99883.00
2018-11-26T00:29:36.007Z,99889.00
2018-11-26T00:32:06.506Z,99883.00
2018-11-26T00:34:36.635Z,99876.00
2018-11-26T00:37:07.829Z,99877.00
2018-11-26T00:39:38.453Z,99879.00
2018-11-26T00:42:08.873Z,99872.00
2018-11-26T00:44:39.671Z,99876.00
2018-11-26T00:47:09.761Z,99868.00
2018-11-26T00:49:39.896Z,99866.00
2018-11-26T00:52:10.288Z,99878.00
2018-11-26T00:54:40.416Z,99877.00
2018-11-26T00:57:10.748Z,99870.00
2018-11-26T00:59:40.689Z,99870.00
2018-11-26T01:02:11.910Z,99869.00
2018-11-26T01:04:42.564Z,99881.00
2018-11-26T01:07:13.275Z,99877.00
2018-11-26T01:09:43.635Z,99876.00
2018-11-26T01:12:14.431Z,99877.00
2018-11-26T01:14:45.337Z,99877.00
2018-11-26T01:17:15.695Z,99871.00
2018-11-26T01:19:46.016Z,99874.00
2018-11-26T01:22:16.594Z,99877.00
2018-11-26T01:24:47.083Z,99876.00
2018-11-26T01:27:17.911Z,99879.00
2018-11-26T01:29:48.097Z,99879.00
2018-11-26T01:32:18.342Z,99884.00
2018-11-26T01:34:48.387Z,99883.00
2018-11-26T01:37:18.625Z,99889.00
2018-11-26T01:39:48.674Z,99878.00
2018-11-26T01:42:18.850Z,99868.00
2018-11-26T01:44:49.472Z,99867.00
2018-11-26T01:47:19.827Z,99868.00
2018-11-26T01:49:50.871Z,99871.00
2018-11-26T01:52:21.079Z,99868.00
2018-11-26T01:54:52.078Z,99867.00
2018-11-26T01:57:22.402Z,99854.00
2018-11-26T01:59:52.500Z,99863.00
2018-11-26T02:02:23.423Z,99870.00
2018-11-26T02:04:54.606Z,99885.00
2018-11-26T02:07:24.960Z,99887.00
2018-11-26T02:09:55.051Z,99890.00
2018-11-26T02:12:25.471Z,99882.00
2018-11-26T02:14:55.754Z,99888.00
2018-11-26T02:17:26.247Z,99885.00
2018-11-26T02:19:56.505Z,99881.00
2018-11-26T02:22:26.811Z,99882.00
2018-11-26T02:24:58.600Z,99888.00
2018-11-26T02:27:28.774Z,99882.00
2018-11-26T02:29:59.313Z,99886.00
2018-11-26T02:32:30.423Z,99889.00
2018-11-26T02:35:00.632Z,99880.00
2018-11-26T02:37:31.375Z,99885.00
2018-11-26T02:40:01.260Z,99888.00
2018-11-26T02:42:31.327Z,99878.00
2018-11-26T02:45:02.175Z,99881.00
2018-11-26T02:47:32.234Z,99878.00
2018-11-26T02:50:02.131Z,99884.00
2018-11-26T02:52:39.563Z,99884.00
2018-11-26T02:55:10.277Z,99878.00
2018-11-26T02:57:40.326Z,99876.00
2018-11-26T03:00:12.273Z,99869.00
2018-11-26T03:02:42.269Z,99868.00
2018-11-26T03:05:18.788Z,99870.00
2018-11-26T03:07:49.528Z,99870.00
2018-11-26T03:10:19.926Z,99869.00
2018-11-26T03:12:50.579Z,99874.00
2018-11-26T03:15:20.851Z,99872.00
2018-11-26T03:17:51.284Z,99876.00
2018-11-26T03:20:21.689Z,99874.00
2018-11-26T03:22:51.937Z,99870.00
2018-11-26T03:25:22.001Z,99880.00
2018-11-26T03:27:52.171Z,99870.00
2018-11-26T03:30:24.088Z,99874.00
2018-11-26T03:32:54.136Z,99873.00
2018-11-26T03:35:24.553Z,99866.00
2018-11-26T03:37:54.618Z,99867.00
2018-11-26T03:40:24.720Z,99853.00
2018-11-26T03:42:54.768Z,99860.00
2018-11-26T03:45:24.710Z,99864.00
2018-11-26T03:47:54.867Z,99863.00
2018-11-26T03:50:25.004Z,99861.00
2018-11-26T03:52:55.453Z,99863.00
2018-11-26T03:55:25.559Z,99862.00
2018-11-26T03:57:55.655Z,99869.00
2018-11-26T04:00:25.585Z,99876.00
2018-11-26T04:02:55.569Z,99865.00
2018-11-26T04:05:25.737Z,99869.00
2018-11-26T04:07:57.029Z,99871.00
2018-11-26T04:10:27.104Z,99878.00
2018-11-26T04:12:57.118Z,99881.00
2018-11-26T04:15:27.260Z,99879.00
2018-11-26T04:17:57.225Z,99880.00
2018-11-26T04:20:27.494Z,99878.00
2018-11-26T04:22:57.681Z,99880.00
2018-11-26T04:25:29.954Z,99875.00
2018-11-26T04:27:59.963Z,99883.00
2018-11-26T04:30:30.449Z,99890.00
2018-11-26T04:33:00.608Z,99889.00
2018-11-26T04:35:31.097Z,99887.00
2018-11-26T04:38:01.592Z,99885.00
2018-11-26T04:40:32.595Z,99899.00
2018-11-26T04:43:03.680Z,99905.00
2018-11-26T04:45:34.704Z,99910.00
2018-11-26T04:48:04.868Z,99903.00
2018-11-26T04:50:36.423Z,99908.00
2018-11-26T04:53:07.540Z,99906.00
2018-11-26T04:55:39.012Z,99904.00
2018-11-26T04:58:10.164Z,99916.00
2018-11-26T05:00:40.637Z,99922.00
2018-11-26T05:03:10.661Z,99916.00
2018-11-26T05:05:40.573Z,99923.00
2018-11-26T05:08:10.683Z,99927.00
2018-11-26T05:10:41.250Z,99919.00
2018-11-26T05:13:11.676Z,99917.00
2018-11-26T05:15:41.742Z,99911.00
2018-11-26T05:18:11.708Z,99918.00
2018-11-26T05:20:41.757Z,99925.00
2018-11-26T05:23:11.896Z,99916.00
2018-11-26T05:25:42.214Z,99925.00
2018-11-26T05:28:12.312Z,99922.00
2018-11-26T05:30:42.193Z,99920.00
2018-11-26T05:33:12.089Z,99925.00
2018-11-26T05:35:42.058Z,99929.00
2018-11-26T05:38:12.083Z,99941.00
2018-11-26T05:40:42.966Z,99924.00
2018-11-26T05:43:13.133Z,99927.00
2018-11-26T05:45:44.092Z,99918.00
2018-11-26T05:48:14.021Z,99924.00
2018-11-26T05:50:44.122Z,99927.00
2018-11-26T05:53:14.185Z,99929.00
2018-11-26T05:55:44.366Z,99935.00
2018-11-26T05:58:14.636Z,99933.00
2018-11-26T06:00:44.748Z,99935.00
2018-11-26T06:03:15.215Z,99934.00
2018-11-26T06:05:45.783Z,99938.00
2018-11-26T06:08:15.804Z,99940.00
2018-11-26T06:10:45.863Z,99935.00
2018-11-26T06:13:16.052Z,99935.00
2018-11-26T06:15:46.668Z,99934.00
2018-11-26T06:18:17.022Z,99928.00
2018-11-26T06:20:46.988Z,99937.00
2018-11-26T06:23:17.182Z,99946.00
2018-11-26T06:25:47.710Z,99949.00
2018-11-26T06:28:19.515Z,99955.00
2018-11-26T06:30:49.990Z,99955.00
2018-11-26T06:33:19.963Z,99955.00
2018-11-26T06:35:50.160Z,99954.00
2018-11-26T06:38:20.149Z,99966.00
2018-11-26T06:40:50.709Z,99965.00
2018-11-26T06:43:21.857Z,99961.00
2018-11-26T06:45:52.229Z,99967.00
2018-11-26T06:48:22.239Z,99959.00
2018-11-26T06:50:52.481Z,99963.00
2018-11-26T06:53:23.500Z,99955.00
2018-11-26T06:55:53.557Z,99963.00
2018-11-26T06:58:23.793Z,99958.00
2018-11-26T07:00:54.176Z,99958.00
2018-11-26T07:03:24.380Z,99961.00
2018-11-26T07:05:54.334Z,99958.00
2018-11-26T07:08:24.367Z,99962.00
2018-11-26T07:10:54.571Z,99958.00
2018-11-26T07:13:24.725Z,99968.00
2018-11-26T07:15:55.061Z,99971.00
2018-11-26T07:18:25.257Z,99968.00
2018-11-26T07:20:55.352Z,99967.00
2018-11-26T07:23:25.563Z,99968.00
2018-11-26T07:25:56.099Z,99979.00
2018-11-26T07:28:26.262Z,99967.00
2018-11-26T07:30:56.377Z,99979.00
2018-11-26T07:33:27.424Z,99983.00
2018-11-26T07:35:57.485Z,99982.00
2018-11-26T07:38:27.501Z,99979.00
2018-11-26T07:40:57.670Z,99990.00
2018-11-26T07:43:27.981Z,99987.00
2018-11-26T07:46:01.132Z,100000.00
2018-11-26T07:48:31.263Z,99999.00
2018-11-26T07:51:01.238Z,99997.00
2018-11-26T07:53:31.548Z,100011.00
2018-11-26T07:56:01.641Z,100002.00
2018-11-26T07:58:32.311Z,100012.00
2018-11-26T08:01:02.395Z,100020.00
2018-11-26T08:03:33.430Z,100018.00
2018-11-26T08:06:08.781Z,100017.00
2018-11-26T08:08:34.388Z,100012.00
2018-11-26T08:11:04.403Z,100022.00
2018-11-26T08:13:35.029Z,100015.00
2018-11-26T08:16:06.621Z,100024.00
2018-11-26T08:18:37.826Z,100020.00
2018-11-26T08:21:08.422Z,100019.00
2018-11-26T08:23:39.346Z,100028.00
2018-11-26T08:26:09.589Z,100020.00
2018-11-26T08:28:40.839Z,100032.00
2018-11-26T08:31:11.587Z,100026.00
2018-11-26T08:33:42.026Z,100033.00
2018-11-26T08:36:14.286Z,100032.00
2018-11-26T08:38:46.212Z,100028.00
2018-11-26T08:41:18.990Z,100025.00
2018-11-26T08:43:57.097Z,100036.00
2018-11-26T08:46:32.294Z,100032.00
2018-11-26T08:49:02.792Z,100035.00
2018-11-26T08:51:33.276Z,100049.00
2018-11-26T08:54:03.864Z,100053.00
2018-11-26T08:56:33.920Z,100049.00
2018-11-26T08:59:03.818Z,100055.00
2018-11-26T09:01:34.570Z,100047.00
2018-11-26T09:04:04.993Z,100054.00
2018-11-26T09:06:35.088Z,100054.00
2018-11-26T09:09:07.634Z,100058.00
2018-11-26T09:11:37.856Z,100055.00
2018-11-26T09:14:08.553Z,100061.00
2018-11-26T09:16:39.496Z,100058.00
2018-11-26T09:19:09.739Z,100061.00
2018-11-26T09:21:41.173Z,100067.00
2018-11-26T09:24:12.307Z,100070.00
2018-11-26T09:26:43.679Z,100075.00
2018-11-26T09:29:13.987Z,100080.00
2018-11-26T09:31:44.402Z,100083.00
2018-11-26T09:34:14.521Z,100083.00
2018-11-26T09:36:44.697Z,100083.00
2018-11-26T09:39:15.176Z,100081.00
2018-11-26T09:41:46.200Z,100085.00
2018-11-26T09:44:16.871Z,100088.00
2018-11-26T09:46:47.099Z,100098.00
2018-11-26T09:49:17.280Z,100093.00
2018-11-26T09:51:48.949Z,100099.00
2018-11-26T09:54:25.778Z,100100.00
2018-11-26T09:56:49.413Z,100110.00
2018-11-26T09:59:19.412Z,100113.00
2018-11-26T10:01:50.535Z,100105.00
2018-11-26T10:04:20.762Z,100103.00
2018-11-26T10:06:51.349Z,100099.00
2018-11-26T10:09:22.148Z,100105.00
2018-11-26T10:11:52.893Z,100105.00
2018-11-26T10:14:23.784Z,100102.00
2018-11-26T10:16:54.665Z,100107.00
2018-11-26T10:19:24.841Z,100100.00
2018-11-26T10:21:55.638Z,100096.00
2018-11-26T10:24:25.755Z,100103.00
2018-11-26T10:26:55.857Z,100102.00
2018-11-26T10:29:26.079Z,100095.00
2018-11-26T10:31:56.652Z,100107.00
2018-11-26T10:34:28.246Z,100103.00
2018-11-26T10:36:58.627Z,100051.00
2018-11-26T10:39:29.795Z,100095.00
2018-11-26T10:42:01.112Z,100098.00
2018-11-26T10:44:30.861Z,100097.00
2018-11-26T10:47:01.056Z,100100.00
2018-11-26T10:49:31.486Z,100097.00
2018-11-26T10:52:01.985Z,100097.00
2018-11-26T10:54:32.929Z,100094.00
2018-11-26T10:57:03.383Z,100083.00
2018-11-26T10:59:33.969Z,100077.00
2018-11-26T11:03:09.797Z,100077.00
2018-11-26T11:05:40.073Z,100081.00
2018-11-26T11:08:11.220Z,100065.00
2018-11-26T11:10:41.650Z,100073.00
2018-11-26T11:13:12.003Z,100081.00
2018-11-26T11:15:42.913Z,100081.00
2018-11-26T11:18:13.284Z,100081.00
2018-11-26T11:20:43.600Z,100070.00
2018-11-26T11:23:14.197Z,100070.00
2018-11-26T11:25:44.969Z,100068.00
2018-11-26T11:28:15.138Z,100063.00
2018-11-26T11:30:45.526Z,100069.00
2018-11-26T11:35:45.452Z,100070.00
2018-11-26T11:38:16.729Z,100069.00
2018-11-26T11:40:46.982Z,100068.00
2018-11-26T11:43:17.557Z,100068.00
2018-11-26T11:45:48.552Z,100061.00
2018-11-26T11:48:19.433Z,100067.00
2018-11-26T11:50:50.177Z,100063.00
2018-11-26T11:53:20.169Z,100061.00
2018-11-26T11:55:50.434Z,100060.00
2018-11-26T11:58:20.729Z,100061.00
2018-11-26T12:00:50.961Z,100057.00
2018-11-26T12:03:21.979Z,100060.00
2018-11-26T12:05:52.253Z,100067.00
2018-11-26T12:08:22.874Z,100063.00
2018-11-26T12:10:52.878Z,100077.00
2018-11-26T12:13:22.970Z,100075.00
2018-11-26T12:15:54.712Z,100083.00
2018-11-26T12:18:24.792Z,100076.00
2018-11-26T12:20:55.144Z,100084.00
2018-11-26T12:23:25.383Z,100069.00
2018-11-26T12:25:57.221Z,100086.00
2018-11-26T12:28:27.335Z,100067.00
2018-11-26T12:30:58.428Z,100075.00
2018-11-26T12:33:28.994Z,100068.00
2018-11-26T12:35:59.728Z,100076.00
2018-11-26T12:38:29.749Z,100083.00
2018-11-26T12:40:59.864Z,100078.00
2018-11-26T12:43:31.030Z,100079.00
2018-11-26T12:46:01.341Z,100078.00
2018-11-26T12:48:32.510Z,100076.00
2018-11-26T12:51:03.042Z,100083.00
2018-11-26T12:53:34.123Z,100079.00
2018-11-26T12:56:04.809Z,100088.00
2018-11-26T12:58:34.978Z,100089.00
2018-11-26T13:01:05.335Z,100091.00
2018-11-26T13:03:35.594Z,100088.00
2018-11-26T13:06:06.618Z,100083.00
2018-11-26T13:08:36.987Z,100086.00
2018-11-26T13:11:07.995Z,100080.00
2018-11-26T13:13:38.071Z,100075.00
2018-11-26T13:16:08.317Z,100084.00
2018-11-26T13:18:38.709Z,100083.00
2018-11-26T13:21:09.370Z,100086.00
2018-11-26T13:23:40.337Z,100082.00
2018-11-26T13:26:12.121Z,100082.00
2018-11-26T13:28:42.077Z,100087.00
2018-11-26T13:31:11.993Z,100088.00
2018-11-26T13:33:41.915Z,100095.00
2018-11-26T13:36:12.125Z,100088.00
2018-11-26T13:38:42.345Z,100088.00
2018-11-26T13:41:12.430Z,100098.00
2018-11-26T13:43:42.557Z,100102.00
2018-11-26T13:46:13.559Z,100095.00
2018-11-26T13:48:43.635Z,100104.00
2018-11-26T13:51:13.873Z,100102.00
2018-11-26T13:53:44.126Z,100102.00
2018-11-26T13:56:15.455Z,100099.00
2018-11-26T13:58:45.499Z,100098.00
2018-11-26T14:01:15.687Z,100098.00
2018-11-26T14:03:45.933Z,100095.00
2018-11-26T14:06:16.037Z,100094.00
2018-11-26T14:08:49.831Z,100097.00
2018-11-26T14:11:20.660Z,100091.00
2018-11-26T14:13:50.711Z,100087.00
2018-11-26T14:16:22.520Z,100083.00
2018-11-26T14:18:54.003Z,100083.00
2018-11-26T14:21:24.592Z,100079.00
2018-11-26T14:23:54.822Z,100080.00
2018-11-26T14:26:24.978Z,100076.00
2018-11-26T14:28:55.194Z,100079.00
2018-11-26T14:31:25.646Z,100078.00
2018-11-26T14:33:57.598Z,100083.00
2018-11-26T14:36:27.729Z,100080.00
2018-11-26T14:38:57.824Z,100088.00
2018-11-26T14:41:28.812Z,100096.00
2018-11-26T14:43:59.033Z,100085.00
2018-11-26T14:46:30.080Z,100091.00
2018-11-26T14:49:00.402Z,100091.00
2018-11-26T14:51:30.498Z,100097.00
2018-11-26T14:54:00.564Z,100103.00
2018-11-26T14:56:32.816Z,100102.00
2018-11-26T14:59:05.051Z,100105.00
2018-11-26T15:01:36.487Z,100093.00
2018-11-26T15:04:08.292Z,100101.00
2018-11-26T15:06:38.284Z,100097.00
2018-11-26T15:09:10.806Z,100096.00
2018-11-26T15:11:41.403Z,100096.00
2018-11-26T15:14:12.128Z,100091.00
2018-11-26T15:16:42.893Z,100087.00
2018-11-26T15:19:13.288Z,100085.00
2018-11-26T15:21:44.034Z,100092.00
2018-11-26T15:24:14.830Z,100099.00
2018-11-26T15:26:45.281Z,100103.00
2018-11-26T15:29:15.417Z,100105.00
2018-11-26T15:31:50.148Z,100113.00
2018-11-26T15:34:15.643Z,100110.00
2018-11-26T15:36:45.698Z,100116.00
2018-11-26T15:39:16.198Z,100117.00
2018-11-26T15:41:46.386Z,100115.00
2018-11-26T15:44:16.940Z,100113.00
2018-11-26T15:46:47.033Z,100123.00
2018-11-26T15:49:17.096Z,100122.00
2018-11-26T15:51:47.486Z,100127.00
2018-11-26T15:54:17.876Z,100135.00
2018-11-26T15:56:48.023Z,100146.00
2018-11-26T15:59:18.311Z,100144.00
2018-11-26T16:01:48.930Z,100155.00
2018-11-26T16:04:18.912Z,100147.00
2018-11-26T16:06:49.778Z,100147.00
2018-11-26T16:09:19.993Z,100148.00
2018-11-26T16:11:51.139Z,100147.00
2018-11-26T16:14:21.372Z,100153.00
2018-11-26T16:16:51.550Z,100154.00
2018-11-26T16:19:21.493Z,100144.00
2018-11-26T16:21:52.424Z,100154.00
2018-11-26T16:24:22.550Z,100158.00
2018-11-26T16:26:53.432Z,100160.00
2018-11-26T16:29:23.745Z,100161.00
2018-11-26T16:31:53.877Z,100152.00
2018-11-26T16:34:24.311Z,100159.00
2018-11-26T16:36:54.533Z,100168.00
2018-11-26T16:39:24.634Z,100166.00
2018-11-26T16:41:55.105Z,100164.00
2018-11-26T16:44:26.545Z,100170.00
2018-11-26T16:46:57.013Z,100174.00
2018-11-26T16:49:27.031Z,100180.00
2018-11-26T16:51:57.087Z,100179.00
2018-11-26T16:54:27.341Z,100190.00
2018-11-26T16:56:57.404Z,100190.00
2018-11-26T16:59:28.382Z,100204.00
2018-11-26T17:01:58.908Z,100208.00
2018-11-26T17:04:29.000Z,100212.00
2018-11-26T17:06:59.560Z,100210.00
2018-11-26T17:09:30.354Z,100208.00
2018-11-26T17:12:01.113Z,100217.00
2018-11-26T17:14:32.151Z,100216.00
2018-11-26T17:17:05.144Z,100215.00
2018-11-26T17:19:35.884Z,100215.00
2018-11-26T17:22:06.312Z,100206.00
2018-11-26T17:24:36.540Z,100214.00
2018-11-26T17:27:07.019Z,100215.00
2018-11-26T17:29:36.902Z,100218.00
2018-11-26T17:32:07.127Z,100200.00
2018-11-26T17:34:37.211Z,100215.00
2018-11-26T17:37:07.504Z,100213.00
2018-11-26T17:39:37.979Z,100224.00
2018-11-26T17:42:08.146Z,100212.00
2018-11-26T17:44:38.971Z,100218.00
2018-11-26T17:47:09.206Z,100211.00
2018-11-26T17:49:39.334Z,100221.00
2018-11-26T17:52:10.158Z,100221.00
2018-11-26T17:54:40.172Z,100230.00
2018-11-26T17:57:10.678Z,100243.00
2018-11-26T17:59:40.905Z,100240.00
2018-11-26T18:02:11.225Z,100236.00
2018-11-26T18:04:41.710Z,100239.00
2018-11-26T18:07:11.877Z,100245.00
2018-11-26T18:09:42.019Z,100240.00
2018-11-26T18:12:12.230Z,100245.00
2018-11-26T18:14:42.263Z,100246.00
2018-11-26T18:17:12.770Z,100248.00
2018-11-26T18:19:43.013Z,100260.00
2018-11-26T18:22:13.107Z,100255.00
2018-11-26T18:24:43.378Z,100258.00
2018-11-26T18:27:14.301Z,100260.00
2018-11-26T18:29:46.050Z,100269.00
2018-11-26T18:32:16.386Z,100262.00
2018-11-26T18:34:49.707Z,100273.00
2018-11-26T18:37:20.046Z,100267.00
2018-11-26T18:39:51.423Z,100266.00
2018-11-26T18:42:21.574Z,100270.00
2018-11-26T18:44:53.531Z,100269.00
2018-11-26T18:47:24.365Z,100266.00
2018-11-26T18:49:54.616Z,100275.00
2018-11-26T18:52:24.845Z,100276.00
2018-11-26T18:54:55.676Z,100277.00
2018-11-26T18:57:25.866Z,100276.00
2018-11-26T18:59:56.008Z,100278.00
2018-11-26T19:02:27.854Z,100283.00
2018-11-26T19:04:58.078Z,100281.00
2018-11-26T19:07:28.343Z,100282.00
2018-11-26T19:09:58.723Z,100287.00
2018-11-26T19:12:28.724Z,100282.00
2018-11-26T19:14:58.715Z,100280.00
2018-11-26T19:17:29.103Z,100279.00
2018-11-26T19:20:02.071Z,100274.00
2018-11-26T19:22:33.060Z,100266.00
2018-11-26T19:25:07.783Z,100267.00
2018-11-26T19:27:41.726Z,100264.00
2018-11-26T19:30:15.362Z,100271.00
2018-11-26T19:32:47.228Z,100278.00
2018-11-26T19:35:19.472Z,100278.00
2018-11-26T19:37:50.965Z,100276.00
2018-11-26T19:40:21.769Z,100285.00
2018-11-26T19:42:55.933Z,100287.00
2018-11-26T19:45:26.850Z,100288.00
2018-11-26T19:47:57.036Z,100289.00
2018-11-26T19:50:27.278Z,100293.00
2018-11-26T19:52:57.471Z,100299.00
2018-11-26T19:55:28.385Z,100299.00
2018-11-26T19:57:59.970Z,100300.00
2018-11-26T20:00:31.822Z,100301.00
2018-11-26T20:03:41.275Z,100308.00
2018-11-26T20:06:17.812Z,100308.00
2018-11-26T20:08:55.156Z,100306.00
2018-11-26T20:11:25.292Z,100315.00
2018-11-26T20:13:55.464Z,100312.00
2018-11-26T20:16:29.841Z,100317.00
2018-11-26T20:19:00.110Z,100335.00
2018-11-26T20:21:30.117Z,100314.00
2018-11-26T20:24:00.397Z,100311.00
2018-11-26T20:26:30.740Z,100318.00
2018-11-26T20:29:00.735Z,100318.00
2018-11-26T20:31:31.164Z,100318.00
2018-11-26T20:34:01.319Z,100326.00
2018-11-26T20:36:31.333Z,100340.00
2018-11-26T20:39:01.941Z,100340.00
2018-11-26T20:41:32.188Z,100341.00
2018-11-26T20:44:02.332Z,100342.00
2018-11-26T20:46:33.314Z,100343.00
2018-11-26T20:49:04.338Z,100339.00
2018-11-26T20:51:35.293Z,100340.00
2018-11-26T20:54:05.401Z,100351.00
2018-11-26T20:56:36.144Z,100346.00
2018-11-26T20:59:07.162Z,100326.00
2018-11-26T21:01:37.289Z,100346.00
2018-11-26T21:04:08.302Z,100350.00
2018-11-26T21:06:38.651Z,100353.00
2018-11-26T21:09:10.729Z,100352.00
2018-11-26T21:11:40.836Z,100355.00
2018-11-26T21:14:11.034Z,100347.00
2018-11-26T21:16:41.488Z,100350.00
2018-11-26T21:19:11.788Z,100355.00
2018-11-26T21:21:41.882Z,100352.00
2018-11-26T21:24:12.745Z,100359.00
2018-11-26T21:26:43.309Z,100345.00
2018-11-26T21:29:14.439Z,100344.00
2018-11-26T21:31:45.226Z,100341.00
2018-11-26T21:34:15.866Z,100337.00
2018-11-26T21:36:46.210Z,100334.00
2018-11-26T21:39:16.252Z,100335.00
2018-11-26T21:41:46.626Z,100316.00
2018-11-26T21:44:17.731Z,100307.00
2018-11-26T21:46:54.922Z,100306.00
2018-11-26T21:49:25.252Z,100315.00
2018-11-26T21:51:56.360Z,100297.00
2018-11-26T21:54:27.266Z,100309.00
2018-11-26T21:56:57.625Z,100308.00
2018-11-26T21:59:27.972Z,100311.00
2018-11-26T22:01:58.080Z,100317.00
2018-11-26T22:04:28.805Z,100305.00
2018-11-26T22:07:00.283Z,100304.00
2018-11-26T22:09:30.321Z,100298.00
2018-11-26T22:12:00.859Z,100294.00
2018-11-26T22:14:31.079Z,100300.00
2018-11-26T22:17:01.135Z,100308.00
2018-11-26T22:19:31.254Z,100305.00
2018-11-26T22:22:02.377Z,100303.00
2018-11-26T22:24:32.875Z,100312.00
2018-11-26T22:27:03.119Z,100297.00
2018-11-26T22:29:33.237Z,100311.00
2018-11-26T22:32:03.909Z,100313.00
2018-11-26T22:34:34.465Z,100312.00
2018-11-26T22:37:04.638Z,100331.00
2018-11-26T22:39:34.725Z,100320.00
2018-11-26T22:42:05.042Z,100307.00
2018-11-26T22:44:35.167Z,100300.00
2018-11-26T22:47:05.627Z,100297.00
2018-11-26T22:49:35.789Z,100293.00
2018-11-26T22:52:05.849Z,100289.00
2018-11-26T22:54:36.037Z,100287.00
2018-11-26T22:57:06.857Z,100283.00
2018-11-26T22:59:37.290Z,100272.00
2018-11-26T23:02:07.843Z,100273.00
2018-11-26T23:04:38.022Z,100263.00
2018-11-26T23:07:08.062Z,100269.00
2018-11-26T23:09:39.619Z,100276.00
2018-11-26T23:12:11.476Z,100288.00
2018-11-26T23:14:41.783Z,100290.00
2018-11-26T23:17:11.876Z,100291.00
2018-11-26T23:19:42.060Z,100287.00
2018-11-26T23:22:13.163Z,100294.00
2018-11-26T23:24:43.239Z,100288.00
2018-11-26T23:27:13.368Z,100286.00
2018-11-26T23:29:43.457Z,100292.00
2018-11-26T23:32:13.644Z,100298.00
2018-11-26T23:34:43.577Z,100297.00
2018-11-26T23:37:13.945Z,100304.00
2018-11-26T23:39:44.102Z,100310.00
2018-11-26T23:42:14.356Z,100318.00
2018-11-26T23:44:44.218Z,100334.00
2018-11-26T23:47:16.068Z,100321.00
2018-11-26T23:49:46.245Z,100305.00
2018-11-26T23:52:16.465Z,100311.00
2018-11-26T23:54:46.538Z,100310.00
2018-11-26T23:57:16.827Z,100314.00
2018-11-26T23:59:47.472Z,100307.00
